Strona główna
METAR-TAF:

METAR-TAF

Lotnisko :

Port lotniczy Bornholm

Rønne, Dania

Szerokość geograficzna: 55-04N, Długość geograficzna: 014-45E, wysokość: 16 m

Aktualna obserwacja pogody

Raport powstał 7 minut temu, godzina 22:20 UTC
Wiatr 6 kt od północ
Temperatura 9°C
Wilgotność 87%
Ciśnienie 1023 hPa
Widzialność 10 km lub więcej

METAR: EKRN 182220Z AUTO 01006KT 9999NDV NCD 09/07 Q1023

czas: 00:27 (22:27 UTC)

Prognoza

Raport powstał 5 godziny i 14 minut temu, godzina 17:13 UTC
Prognoza ważna od 18 godzina 18 UTC do 18 godzina 22 UTC
Wiatr 5 kt od północny zachód
Widzialność 10 km lub więcej
Brak chmur poniżej 1500 m i brak chmur cumulonimbus
Prawdopodobieństwo 40%
od 18 godzina 20 UTC do 18 godzina 22 UTC
Widzialność: 4000 m
Płytka mgła

TAF: EKRN 181713Z 1818/1822 32005KT CAVOK PROB40 1820/1822 4000 MIFG

Obserwacja i prognoza pogody dla ponad 4000 lotnisk (raport METAR i TAF).

Dostępne stacje oznaczono żółtymi i czerwonymi punktami na mapie.

Najedź kursorem aby zobaczyć nazwę stacji.

Kliknij aby zobaczyć obserwacje i prognozy pogody.

Aby zmienić mapę: kliknij na zielony przycisk z czarnym krzyżykiem, aby powiększyć; na zielony przycisk z myślnikiem, aby pomniejszyć; na zielone strzałki, aby przejść do map sąsiednich.


METAR-TAF: